sensor_id;sensor_type;location;lat;lon;timestamp;P1;durP1;ratioP1;P2;durP2;ratioP2
55913;SDS011;58179;48.776;9.124;2024-03-02T00:00:35;63.47;;;22.92;;
55913;SDS011;58179;48.776;9.124;2024-03-02T00:03:01;62.08;;;21.50;;
55913;SDS011;58179;48.776;9.124;2024-03-02T00:05:29;62.08;;;21.60;;
55913;SDS011;58179;48.776;9.124;2024-03-02T00:07:56;58.47;;;20.75;;
55913;SDS011;58179;48.776;9.124;2024-03-02T00:10:24;65.85;;;21.77;;
55913;SDS011;58179;48.776;9.124;2024-03-02T00:12:54;63.70;;;21.17;;
55913;SDS011;58179;48.776;9.124;2024-03-02T00:15:28;65.23;;;21.73;;
55913;SDS011;58179;48.776;9.124;2024-03-02T00:18:10;60.05;;;20.58;;
55913;SDS011;58179;48.776;9.124;2024-03-02T00:20:39;70.20;;;21.58;;
55913;SDS011;58179;48.776;9.124;2024-03-02T00:23:06;63.50;;;19.88;;
55913;SDS011;58179;48.776;9.124;2024-03-02T00:25:37;58.88;;;20.08;;
55913;SDS011;58179;48.776;9.124;2024-03-02T00:28:09;61.15;;;20.13;;
55913;SDS011;58179;48.776;9.124;2024-03-02T00:30:46;66.43;;;20.47;;
55913;SDS011;58179;48.776;9.124;2024-03-02T00:33:20;72.40;;;20.93;;
55913;SDS011;58179;48.776;9.124;2024-03-02T00:35:48;70.32;;;21.02;;
55913;SDS011;58179;48.776;9.124;2024-03-02T00:38:14;73.53;;;23.58;;
55913;SDS011;58179;48.776;9.124;2024-03-02T00:40:41;83.88;;;23.50;;
55913;SDS011;58179;48.776;9.124;2024-03-02T00:43:09;84.60;;;23.95;;
55913;SDS011;58179;48.776;9.124;2024-03-02T00:45:51;81.50;;;24.00;;
55913;SDS011;58179;48.776;9.124;2024-03-02T00:48:18;81.80;;;23.52;;
55913;SDS011;58179;48.776;9.124;2024-03-02T00:50:44;77.90;;;23.75;;
55913;SDS011;58179;48.776;9.124;2024-03-02T00:53:12;84.80;;;23.48;;
55913;SDS011;58179;48.776;9.124;2024-03-02T00:55:39;91.20;;;24.13;;
55913;SDS011;58179;48.776;9.124;2024-03-02T00:58:09;65.63;;;21.30;;
55913;SDS011;58179;48.776;9.124;2024-03-02T01:00:35;83.20;;;23.90;;
55913;SDS011;58179;48.776;9.124;2024-03-02T01:03:01;79.18;;;24.08;;
55913;SDS011;58179;48.776;9.124;2024-03-02T01:05:29;72.72;;;21.50;;
55913;SDS011;58179;48.776;9.124;2024-03-02T01:07:55;67.40;;;20.13;;
55913;SDS011;58179;48.776;9.124;2024-03-02T01:10:22;74.43;;;22.58;;
55913;SDS011;58179;48.776;9.124;2024-03-02T01:12:48;67.47;;;20.58;;
55913;SDS011;58179;48.776;9.124;2024-03-02T01:15:14;62.22;;;18.70;;
55913;SDS011;58179;48.776;9.124;2024-03-02T01:17:40;68.45;;;21.33;;
55913;SDS011;58179;48.776;9.124;2024-03-02T01:20:07;69.82;;;21.55;;
55913;SDS011;58179;48.776;9.124;2024-03-02T01:22:34;65.53;;;21.25;;
55913;SDS011;58179;48.776;9.124;2024-03-02T01:25:00;70.53;;;21.07;;
55913;SDS011;58179;48.776;9.124;2024-03-02T01:27:28;67.22;;;19.30;;
55913;SDS011;58179;48.776;9.124;2024-03-02T01:29:54;60.42;;;19.77;;
55913;SDS011;58179;48.776;9.124;2024-03-02T01:32:20;59.47;;;18.50;;
55913;SDS011;58179;48.776;9.124;2024-03-02T01:34:46;72.25;;;20.80;;
55913;SDS011;58179;48.776;9.124;2024-03-02T01:37:12;66.93;;;19.63;;
55913;SDS011;58179;48.776;9.124;2024-03-02T01:39:39;55.80;;;17.85;;
55913;SDS011;58179;48.776;9.124;2024-03-02T01:42:05;62.23;;;18.87;;
55913;SDS011;58179;48.776;9.124;2024-03-02T01:44:33;66.57;;;19.90;;
55913;SDS011;58179;48.776;9.124;2024-03-02T01:46:59;62.40;;;19.23;;
55913;SDS011;58179;48.776;9.124;2024-03-02T01:49:26;74.40;;;21.43;;
55913;SDS011;58179;48.776;9.124;2024-03-02T01:51:52;64.57;;;20.10;;
55913;SDS011;58179;48.776;9.124;2024-03-02T01:54:18;77.68;;;21.30;;
55913;SDS011;58179;48.776;9.124;2024-03-02T01:56:44;65.40;;;20.33;;
55913;SDS011;58179;48.776;9.124;2024-03-02T01:59:10;73.82;;;21.20;;
55913;SDS011;58179;48.776;9.124;2024-03-02T02:01:39;87.70;;;24.98;;
55913;SDS011;58179;48.776;9.124;2024-03-02T02:04:05;80.57;;;23.70;;
55913;SDS011;58179;48.776;9.124;2024-03-02T02:06:32;72.13;;;22.42;;
55913;SDS011;58179;48.776;9.124;2024-03-02T02:08:58;88.00;;;25.10;;
55913;SDS011;58179;48.776;9.124;2024-03-02T02:11:24;89.13;;;25.98;;
55913;SDS011;58179;48.776;9.124;2024-03-02T02:13:50;94.20;;;27.10;;
55913;SDS011;58179;48.776;9.124;2024-03-02T02:16:17;95.50;;;26.17;;
55913;SDS011;58179;48.776;9.124;2024-03-02T02:18:44;97.18;;;26.58;;
55913;SDS011;58179;48.776;9.124;2024-03-02T02:21:10;89.68;;;26.92;;
55913;SDS011;58179;48.776;9.124;2024-03-02T02:23:38;93.45;;;27.17;;
55913;SDS011;58179;48.776;9.124;2024-03-02T02:26:04;97.38;;;27.52;;
55913;SDS011;58179;48.776;9.124;2024-03-02T02:28:31;94.03;;;27.25;;
55913;SDS011;58179;48.776;9.124;2024-03-02T02:30:57;102.10;;;28.08;;
55913;SDS011;58179;48.776;9.124;2024-03-02T02:33:25;105.27;;;29.97;;
55913;SDS011;58179;48.776;9.124;2024-03-02T02:35:51;116.47;;;30.75;;
55913;SDS011;58179;48.776;9.124;2024-03-02T02:38:17;104.73;;;29.00;;
55913;SDS011;58179;48.776;9.124;2024-03-02T02:40:46;111.70;;;31.10;;
55913;SDS011;58179;48.776;9.124;2024-03-02T02:43:12;105.35;;;29.00;;
55913;SDS011;58179;48.776;9.124;2024-03-02T02:45:39;112.90;;;30.40;;
55913;SDS011;58179;48.776;9.124;2024-03-02T02:48:05;105.38;;;29.27;;
55913;SDS011;58179;48.776;9.124;2024-03-02T02:50:31;108.13;;;29.42;;
55913;SDS011;58179;48.776;9.124;2024-03-02T02:52:58;104.80;;;29.25;;
55913;SDS011;58179;48.776;9.124;2024-03-02T02:55:24;100.43;;;28.97;;
55913;SDS011;58179;48.776;9.124;2024-03-02T02:57:51;112.07;;;31.15;;
55913;SDS011;58179;48.776;9.124;2024-03-02T03:00:18;124.97;;;33.08;;
55913;SDS011;58179;48.776;9.124;2024-03-02T03:02:45;107.65;;;30.35;;
55913;SDS011;58179;48.776;9.124;2024-03-02T03:05:14;106.78;;;28.92;;
55913;SDS011;58179;48.776;9.124;2024-03-02T03:07:40;107.53;;;30.30;;
55913;SDS011;58179;48.776;9.124;2024-03-02T03:10:07;112.72;;;29.77;;
55913;SDS011;58179;48.776;9.124;2024-03-02T03:12:34;113.40;;;30.02;;
55913;SDS011;58179;48.776;9.124;2024-03-02T03:15:02;105.63;;;29.77;;
55913;SDS011;58179;48.776;9.124;2024-03-02T03:17:32;100.75;;;30.02;;
55913;SDS011;58179;48.776;9.124;2024-03-02T03:19:58;102.07;;;30.38;;
55913;SDS011;58179;48.776;9.124;2024-03-02T03:22:25;113.65;;;32.13;;
55913;SDS011;58179;48.776;9.124;2024-03-02T03:24:52;96.30;;;29.67;;
55913;SDS011;58179;48.776;9.124;2024-03-02T03:27:18;99.22;;;30.30;;
55913;SDS011;58179;48.776;9.124;2024-03-02T03:29:47;97.45;;;28.85;;
55913;SDS011;58179;48.776;9.124;2024-03-02T03:32:14;101.55;;;29.60;;
55913;SDS011;58179;48.776;9.124;2024-03-02T03:34:41;105.57;;;31.50;;
55913;SDS011;58179;48.776;9.124;2024-03-02T03:37:08;115.75;;;31.92;;
55913;SDS011;58179;48.776;9.124;2024-03-02T03:39:34;99.15;;;29.55;;
55913;SDS011;58179;48.776;9.124;2024-03-02T03:42:01;101.97;;;31.20;;
55913;SDS011;58179;48.776;9.124;2024-03-02T03:44:27;107.68;;;30.33;;
55913;SDS011;58179;48.776;9.124;2024-03-02T03:46:53;98.28;;;29.38;;
55913;SDS011;58179;48.776;9.124;2024-03-02T03:49:21;109.53;;;31.50;;
55913;SDS011;58179;48.776;9.124;2024-03-02T03:51:47;103.40;;;29.27;;
55913;SDS011;58179;48.776;9.124;2024-03-02T03:54:13;114.65;;;30.85;;
55913;SDS011;58179;48.776;9.124;2024-03-02T03:56:39;96.22;;;28.75;;
55913;SDS011;58179;48.776;9.124;2024-03-02T03:59:05;104.55;;;30.10;;
55913;SDS011;58179;48.776;9.124;2024-03-02T04:01:32;94.43;;;28.85;;
55913;SDS011;58179;48.776;9.124;2024-03-02T04:03:58;100.45;;;27.55;;
55913;SDS011;58179;48.776;9.124;2024-03-02T04:06:28;106.28;;;29.88;;
55913;SDS011;58179;48.776;9.124;2024-03-02T04:08:54;93.88;;;27.95;;
55913;SDS011;58179;48.776;9.124;2024-03-02T04:11:21;96.65;;;28.42;;
55913;SDS011;58179;48.776;9.124;2024-03-02T04:13:47;113.17;;;30.67;;
55913;SDS011;58179;48.776;9.124;2024-03-02T04:16:13;106.43;;;30.15;;
55913;SDS011;58179;48.776;9.124;2024-03-02T04:18:39;102.10;;;29.10;;
55913;SDS011;58179;48.776;9.124;2024-03-02T04:21:06;92.43;;;29.00;;
55913;SDS011;58179;48.776;9.124;2024-03-02T04:23:34;91.20;;;27.48;;
55913;SDS011;58179;48.776;9.124;2024-03-02T04:26:00;86.97;;;27.17;;
55913;SDS011;58179;48.776;9.124;2024-03-02T04:28:26;95.38;;;28.08;;
55913;SDS011;58179;48.776;9.124;2024-03-02T04:30:53;92.22;;;26.42;;
55913;SDS011;58179;48.776;9.124;2024-03-02T04:33:19;86.88;;;25.67;;
55913;SDS011;58179;48.776;9.124;2024-03-02T04:35:45;92.67;;;26.80;;
55913;SDS011;58179;48.776;9.124;2024-03-02T04:38:11;99.10;;;27.60;;
55913;SDS011;58179;48.776;9.124;2024-03-02T04:40:39;92.85;;;28.20;;
55913;SDS011;58179;48.776;9.124;2024-03-02T04:43:05;91.35;;;26.90;;
55913;SDS011;58179;48.776;9.124;2024-03-02T04:45:31;102.43;;;29.40;;
55913;SDS011;58179;48.776;9.124;2024-03-02T04:47:57;91.28;;;27.92;;
55913;SDS011;58179;48.776;9.124;2024-03-02T04:50:24;91.03;;;27.33;;
55913;SDS011;58179;48.776;9.124;2024-03-02T04:52:50;79.78;;;25.13;;
55913;SDS011;58179;48.776;9.124;2024-03-02T04:55:17;83.50;;;26.08;;
55913;SDS011;58179;48.776;9.124;2024-03-02T04:57:53;86.87;;;26.20;;
55913;SDS011;58179;48.776;9.124;2024-03-02T05:00:19;90.95;;;26.92;;
55913;SDS011;58179;48.776;9.124;2024-03-02T05:02:46;97.00;;;28.73;;
55913;SDS011;58179;48.776;9.124;2024-03-02T05:05:12;82.55;;;26.38;;
55913;SDS011;58179;48.776;9.124;2024-03-02T05:07:40;88.40;;;26.97;;
55913;SDS011;58179;48.776;9.124;2024-03-02T05:10:09;89.03;;;26.50;;
55913;SDS011;58179;48.776;9.124;2024-03-02T05:12:39;94.45;;;28.20;;
55913;SDS011;58179;48.776;9.124;2024-03-02T05:15:23;92.30;;;28.88;;
55913;SDS011;58179;48.776;9.124;2024-03-02T05:17:49;82.82;;;25.90;;
55913;SDS011;58179;48.776;9.124;2024-03-02T05:20:15;92.57;;;27.63;;
55913;SDS011;58179;48.776;9.124;2024-03-02T05:22:42;86.93;;;26.25;;
55913;SDS011;58179;48.776;9.124;2024-03-02T05:25:08;88.32;;;27.00;;
55913;SDS011;58179;48.776;9.124;2024-03-02T05:27:37;95.28;;;27.95;;
55913;SDS011;58179;48.776;9.124;2024-03-02T05:30:03;83.72;;;26.33;;
55913;SDS011;58179;48.776;9.124;2024-03-02T05:32:32;90.13;;;27.95;;
55913;SDS011;58179;48.776;9.124;2024-03-02T05:34:59;97.55;;;27.92;;
55913;SDS011;58179;48.776;9.124;2024-03-02T05:37:25;88.70;;;26.52;;
55913;SDS011;58179;48.776;9.124;2024-03-02T05:39:51;85.63;;;26.83;;
55913;SDS011;58179;48.776;9.124;2024-03-02T05:42:17;80.78;;;26.23;;
55913;SDS011;58179;48.776;9.124;2024-03-02T05:44:47;83.97;;;26.00;;
55913;SDS011;58179;48.776;9.124;2024-03-02T05:47:19;93.53;;;28.63;;
55913;SDS011;58179;48.776;9.124;2024-03-02T05:49:47;87.38;;;28.08;;
55913;SDS011;58179;48.776;9.124;2024-03-02T05:52:13;89.43;;;27.40;;
55913;SDS011;58179;48.776;9.124;2024-03-02T05:54:39;86.25;;;28.25;;
55913;SDS011;58179;48.776;9.124;2024-03-02T05:57:06;97.95;;;29.08;;
55913;SDS011;58179;48.776;9.124;2024-03-02T06:00:04;86.75;;;28.20;;
55913;SDS011;58179;48.776;9.124;2024-03-02T06:02:33;87.18;;;27.95;;
55913;SDS011;58179;48.776;9.124;2024-03-02T06:05:01;91.32;;;27.92;;
55913;SDS011;58179;48.776;9.124;2024-03-02T06:07:29;91.22;;;27.65;;
55913;SDS011;58179;48.776;9.124;2024-03-02T06:09:55;84.93;;;26.65;;
55913;SDS011;58179;48.776;9.124;2024-03-02T06:12:21;81.70;;;26.50;;
55913;SDS011;58179;48.776;9.124;2024-03-02T06:14:48;82.15;;;26.05;;
55913;SDS011;58179;48.776;9.124;2024-03-02T06:17:14;88.50;;;26.00;;
55913;SDS011;58179;48.776;9.124;2024-03-02T06:19:40;77.97;;;26.02;;
55913;SDS011;58179;48.776;9.124;2024-03-02T06:22:07;79.63;;;26.00;;
55913;SDS011;58179;48.776;9.124;2024-03-02T06:24:35;81.82;;;26.25;;
55913;SDS011;58179;48.776;9.124;2024-03-02T06:27:02;91.15;;;27.33;;
55913;SDS011;58179;48.776;9.124;2024-03-02T06:29:29;82.30;;;24.73;;
55913;SDS011;58179;48.776;9.124;2024-03-02T06:31:57;74.30;;;23.95;;
55913;SDS011;58179;48.776;9.124;2024-03-02T06:34:23;77.05;;;25.02;;
55913;SDS011;58179;48.776;9.124;2024-03-02T06:36:49;79.00;;;24.58;;
55913;SDS011;58179;48.776;9.124;2024-03-02T06:39:17;72.18;;;23.65;;
55913;SDS011;58179;48.776;9.124;2024-03-02T06:41:43;77.05;;;23.35;;
55913;SDS011;58179;48.776;9.124;2024-03-02T06:44:09;79.15;;;25.15;;
55913;SDS011;58179;48.776;9.124;2024-03-02T06:46:35;77.50;;;23.25;;
55913;SDS011;58179;48.776;9.124;2024-03-02T06:49:01;79.60;;;24.05;;
55913;SDS011;58179;48.776;9.124;2024-03-02T06:51:29;67.32;;;22.05;;
55913;SDS011;58179;48.776;9.124;2024-03-02T06:53:55;69.63;;;22.55;;
55913;SDS011;58179;48.776;9.124;2024-03-02T06:56:23;68.55;;;21.67;;
55913;SDS011;58179;48.776;9.124;2024-03-02T06:58:49;77.65;;;24.63;;
55913;SDS011;58179;48.776;9.124;2024-03-02T07:01:15;72.03;;;23.83;;
55913;SDS011;58179;48.776;9.124;2024-03-02T07:03:41;70.63;;;21.45;;
55913;SDS011;58179;48.776;9.124;2024-03-02T07:06:08;82.40;;;24.13;;
55913;SDS011;58179;48.776;9.124;2024-03-02T07:08:34;74.15;;;23.55;;
55913;SDS011;58179;48.776;9.124;2024-03-02T07:11:00;74.22;;;24.02;;
55913;SDS011;58179;48.776;9.124;2024-03-02T07:13:28;60.85;;;20.70;;
55913;SDS011;58179;48.776;9.124;2024-03-02T07:15:54;67.72;;;22.05;;
55913;SDS011;58179;48.776;9.124;2024-03-02T07:18:29;61.60;;;19.73;;
55913;SDS011;58179;48.776;9.124;2024-03-02T07:20:55;70.57;;;22.48;;
55913;SDS011;58179;48.776;9.124;2024-03-02T07:23:24;49.97;;;17.63;;
55913;SDS011;58179;48.776;9.124;2024-03-02T07:25:52;42.37;;;16.30;;
55913;SDS011;58179;48.776;9.124;2024-03-02T07:28:21;45.30;;;16.13;;
55913;SDS011;58179;48.776;9.124;2024-03-02T07:30:51;34.42;;;12.77;;
55913;SDS011;58179;48.776;9.124;2024-03-02T07:33:23;34.88;;;12.73;;
55913;SDS011;58179;48.776;9.124;2024-03-02T07:35:50;29.25;;;12.18;;
55913;SDS011;58179;48.776;9.124;2024-03-02T07:38:16;49.63;;;17.30;;
55913;SDS011;58179;48.776;9.124;2024-03-02T07:40:42;40.58;;;16.20;;
55913;SDS011;58179;48.776;9.124;2024-03-02T07:43:08;41.13;;;16.90;;
55913;SDS011;58179;48.776;9.124;2024-03-02T07:45:35;48.17;;;17.55;;
55913;SDS011;58179;48.776;9.124;2024-03-02T07:48:03;40.70;;;16.10;;
55913;SDS011;58179;48.776;9.124;2024-03-02T07:50:29;39.20;;;16.50;;
55913;SDS011;58179;48.776;9.124;2024-03-02T07:52:55;40.90;;;16.42;;
55913;SDS011;58179;48.776;9.124;2024-03-02T07:55:21;40.97;;;16.17;;
55913;SDS011;58179;48.776;9.124;2024-03-02T07:57:50;36.28;;;15.85;;
55913;SDS011;58179;48.776;9.124;2024-03-02T08:00:16;36.27;;;16.13;;
55913;SDS011;58179;48.776;9.124;2024-03-02T08:02:43;37.78;;;16.52;;
55913;SDS011;58179;48.776;9.124;2024-03-02T08:05:10;41.47;;;16.98;;
55913;SDS011;58179;48.776;9.124;2024-03-02T08:07:36;38.60;;;17.10;;
55913;SDS011;58179;48.776;9.124;2024-03-02T08:10:03;34.92;;;15.57;;
55913;SDS011;58179;48.776;9.124;2024-03-02T08:12:30;39.33;;;16.47;;
55913;SDS011;58179;48.776;9.124;2024-03-02T08:14:56;36.45;;;16.25;;
55913;SDS011;58179;48.776;9.124;2024-03-02T08:17:22;37.30;;;15.67;;
55913;SDS011;58179;48.776;9.124;2024-03-02T08:19:49;39.08;;;16.55;;
55913;SDS011;58179;48.776;9.124;2024-03-02T08:22:16;31.77;;;15.45;;
55913;SDS011;58179;48.776;9.124;2024-03-02T08:24:42;29.80;;;14.15;;
55913;SDS011;58179;48.776;9.124;2024-03-02T08:27:09;32.97;;;14.55;;
55913;SDS011;58179;48.776;9.124;2024-03-02T08:29:35;27.08;;;13.77;;
55913;SDS011;58179;48.776;9.124;2024-03-02T08:32:01;26.90;;;13.65;;
55913;SDS011;58179;48.776;9.124;2024-03-02T08:34:27;27.13;;;13.38;;
55913;SDS011;58179;48.776;9.124;2024-03-02T08:36:54;27.67;;;13.57;;
55913;SDS011;58179;48.776;9.124;2024-03-02T08:39:21;24.50;;;12.57;;
55913;SDS011;58179;48.776;9.124;2024-03-02T08:41:48;22.08;;;12.13;;
55913;SDS011;58179;48.776;9.124;2024-03-02T08:44:14;16.88;;;10.23;;
55913;SDS011;58179;48.776;9.124;2024-03-02T08:46:41;18.15;;;10.60;;
55913;SDS011;58179;48.776;9.124;2024-03-02T08:49:07;14.07;;;8.43;;
55913;SDS011;58179;48.776;9.124;2024-03-02T08:51:33;14.13;;;8.35;;
55913;SDS011;58179;48.776;9.124;2024-03-02T08:54:00;13.93;;;8.80;;
55913;SDS011;58179;48.776;9.124;2024-03-02T08:56:27;14.75;;;8.88;;
55913;SDS011;58179;48.776;9.124;2024-03-02T08:58:53;11.55;;;7.45;;
55913;SDS011;58179;48.776;9.124;2024-03-02T09:01:20;8.77;;;5.97;;
55913;SDS011;58179;48.776;9.124;2024-03-02T09:03:46;11.90;;;6.85;;
55913;SDS011;58179;48.776;9.124;2024-03-02T09:06:14;9.63;;;6.40;;
55913;SDS011;58179;48.776;9.124;2024-03-02T09:08:45;12.63;;;6.60;;
55913;SDS011;58179;48.776;9.124;2024-03-02T09:11:12;10.55;;;6.55;;
55913;SDS011;58179;48.776;9.124;2024-03-02T09:13:39;11.27;;;6.45;;
55913;SDS011;58179;48.776;9.124;2024-03-02T09:16:06;8.63;;;5.95;;
55913;SDS011;58179;48.776;9.124;2024-03-02T09:18:35;10.55;;;6.68;;
55913;SDS011;58179;48.776;9.124;2024-03-02T09:21:02;11.15;;;6.90;;
55913;SDS011;58179;48.776;9.124;2024-03-02T09:23:29;12.25;;;7.15;;
55913;SDS011;58179;48.776;9.124;2024-03-02T09:25:55;9.23;;;5.97;;
55913;SDS011;58179;48.776;9.124;2024-03-02T09:28:21;10.00;;;5.90;;
55913;SDS011;58179;48.776;9.124;2024-03-02T09:30:49;8.82;;;5.78;;
55913;SDS011;58179;48.776;9.124;2024-03-02T09:33:15;8.23;;;5.30;;
55913;SDS011;58179;48.776;9.124;2024-03-02T09:35:41;7.90;;;5.40;;
55913;SDS011;58179;48.776;9.124;2024-03-02T09:38:07;6.10;;;4.15;;
55913;SDS011;58179;48.776;9.124;2024-03-02T09:40:33;7.73;;;4.67;;
55913;SDS011;58179;48.776;9.124;2024-03-02T09:43:00;6.88;;;3.95;;
55913;SDS011;58179;48.776;9.124;2024-03-02T09:45:28;5.95;;;3.80;;
55913;SDS011;58179;48.776;9.124;2024-03-02T09:47:57;5.18;;;3.60;;
55913;SDS011;58179;48.776;9.124;2024-03-02T09:50:24;6.22;;;3.20;;
55913;SDS011;58179;48.776;9.124;2024-03-02T09:52:50;5.65;;;3.60;;
55913;SDS011;58179;48.776;9.124;2024-03-02T09:55:19;5.60;;;3.60;;
55913;SDS011;58179;48.776;9.124;2024-03-02T09:57:46;4.75;;;2.88;;
55913;SDS011;58179;48.776;9.124;2024-03-02T10:00:15;2.88;;;2.38;;
55913;SDS011;58179;48.776;9.124;2024-03-02T10:02:42;7.18;;;3.40;;
55913;SDS011;58179;48.776;9.124;2024-03-02T10:05:10;3.88;;;2.53;;
55913;SDS011;58179;48.776;9.124;2024-03-02T10:07:39;5.65;;;3.10;;
55913;SDS011;58179;48.776;9.124;2024-03-02T10:10:14;3.30;;;2.60;;
55913;SDS011;58179;48.776;9.124;2024-03-02T10:12:41;4.60;;;2.70;;
55913;SDS011;58179;48.776;9.124;2024-03-02T10:15:07;2.63;;;2.10;;
55913;SDS011;58179;48.776;9.124;2024-03-02T10:17:34;5.20;;;2.57;;
55913;SDS011;58179;48.776;9.124;2024-03-02T10:20:04;2.97;;;2.25;;
55913;SDS011;58179;48.776;9.124;2024-03-02T10:22:49;2.80;;;2.10;;
55913;SDS011;58179;48.776;9.124;2024-03-02T10:25:27;2.60;;;1.98;;
55913;SDS011;58179;48.776;9.124;2024-03-02T10:27:56;2.80;;;2.47;;
55913;SDS011;58179;48.776;9.124;2024-03-02T10:30:24;3.47;;;2.33;;
55913;SDS011;58179;48.776;9.124;2024-03-02T10:32:50;2.25;;;1.77;;
55913;SDS011;58179;48.776;9.124;2024-03-02T10:35:17;2.80;;;1.80;;
55913;SDS011;58179;48.776;9.124;2024-03-02T10:37:45;4.60;;;1.98;;
55913;SDS011;58179;48.776;9.124;2024-03-02T10:40:13;3.20;;;2.40;;
55913;SDS011;58179;48.776;9.124;2024-03-02T10:42:40;3.03;;;2.08;;
55913;SDS011;58179;48.776;9.124;2024-03-02T10:45:08;4.32;;;2.13;;
55913;SDS011;58179;48.776;9.124;2024-03-02T10:47:36;2.13;;;1.92;;
55913;SDS011;58179;48.776;9.124;2024-03-02T10:50:04;3.38;;;1.98;;
55913;SDS011;58179;48.776;9.124;2024-03-02T10:52:34;1.77;;;1.60;;
55913;SDS011;58179;48.776;9.124;2024-03-02T10:55:02;2.97;;;2.08;;
55913;SDS011;58179;48.776;9.124;2024-03-02T10:57:33;5.40;;;1.90;;
55913;SDS011;58179;48.776;9.124;2024-03-02T11:00:06;3.13;;;1.75;;
55913;SDS011;58179;48.776;9.124;2024-03-02T11:02:39;2.03;;;1.40;;
55913;SDS011;58179;48.776;9.124;2024-03-02T11:05:10;4.22;;;1.90;;
55913;SDS011;58179;48.776;9.124;2024-03-02T11:07:39;2.45;;;1.77;;
55913;SDS011;58179;48.776;9.124;2024-03-02T11:10:07;2.83;;;1.73;;
55913;SDS011;58179;48.776;9.124;2024-03-02T11:12:36;1.65;;;1.30;;
55913;SDS011;58179;48.776;9.124;2024-03-02T11:15:04;3.30;;;1.10;;
55913;SDS011;58179;48.776;9.124;2024-03-02T11:17:36;2.70;;;1.30;;
55913;SDS011;58179;48.776;9.124;2024-03-02T11:20:05;2.08;;;1.50;;
55913;SDS011;58179;48.776;9.124;2024-03-02T11:22:34;1.40;;;1.30;;
55913;SDS011;58179;48.776;9.124;2024-03-02T11:25:01;1.48;;;1.02;;
55913;SDS011;58179;48.776;9.124;2024-03-02T11:33:15;1.38;;;1.00;;
55913;SDS011;58179;48.776;9.124;2024-03-02T11:35:49;1.27;;;1.00;;
55913;SDS011;58179;48.776;9.124;2024-03-02T11:38:16;1.77;;;1.23;;
55913;SDS011;58179;48.776;9.124;2024-03-02T11:40:44;0.93;;;0.88;;
55913;SDS011;58179;48.776;9.124;2024-03-02T11:43:11;1.10;;;0.80;;
55913;SDS011;58179;48.776;9.124;2024-03-02T11:45:38;1.73;;;1.10;;
55913;SDS011;58179;48.776;9.124;2024-03-02T11:48:08;1.77;;;1.42;;
55913;SDS011;58179;48.776;9.124;2024-03-02T11:50:39;8.02;;;1.20;;
55913;SDS011;58179;48.776;9.124;2024-03-02T11:53:07;1.75;;;1.30;;
55913;SDS011;58179;48.776;9.124;2024-03-02T11:55:35;9.18;;;5.43;;
55913;SDS011;58179;48.776;9.124;2024-03-02T11:58:01;31.60;;;17.25;;
55913;SDS011;58179;48.776;9.124;2024-03-02T12:00:30;54.70;;;24.90;;
55913;SDS011;58179;48.776;9.124;2024-03-02T12:02:59;10.05;;;5.53;;
55913;SDS011;58179;48.776;9.124;2024-03-02T12:05:27;3.45;;;2.10;;
55913;SDS011;58179;48.776;9.124;2024-03-02T12:07:55;2.83;;;1.30;;
55913;SDS011;58179;48.776;9.124;2024-03-02T12:10:22;5.33;;;2.50;;
55913;SDS011;58179;48.776;9.124;2024-03-02T12:12:54;2.70;;;1.58;;
55913;SDS011;58179;48.776;9.124;2024-03-02T12:15:22;4.40;;;2.60;;
55913;SDS011;58179;48.776;9.124;2024-03-02T12:17:53;1.48;;;1.00;;
55913;SDS011;58179;48.776;9.124;2024-03-02T12:20:20;1.50;;;0.90;;
55913;SDS011;58179;48.776;9.124;2024-03-02T12:22:46;0.90;;;0.60;;
55913;SDS011;58179;48.776;9.124;2024-03-02T12:25:12;1.80;;;1.38;;
55913;SDS011;58179;48.776;9.124;2024-03-02T12:27:40;1.70;;;1.40;;
55913;SDS011;58179;48.776;9.124;2024-03-02T12:30:06;2.42;;;1.83;;
55913;SDS011;58179;48.776;9.124;2024-03-02T12:32:35;4.22;;;2.50;;
55913;SDS011;58179;48.776;9.124;2024-03-02T12:35:05;1.20;;;1.10;;
55913;SDS011;58179;48.776;9.124;2024-03-02T12:37:31;10.18;;;6.85;;
55913;SDS011;58179;48.776;9.124;2024-03-02T12:39:58;6.22;;;4.82;;
55913;SDS011;58179;48.776;9.124;2024-03-02T12:42:24;4.53;;;2.45;;
55913;SDS011;58179;48.776;9.124;2024-03-02T12:44:51;1.00;;;0.90;;
55913;SDS011;58179;48.776;9.124;2024-03-02T12:47:21;3.97;;;2.90;;
55913;SDS011;58179;48.776;9.124;2024-03-02T12:49:48;1.50;;;1.20;;
55913;SDS011;58179;48.776;9.124;2024-03-02T12:52:18;0.93;;;0.70;;
55913;SDS011;58179;48.776;9.124;2024-03-02T12:54:44;3.80;;;3.40;;
55913;SDS011;58179;48.776;9.124;2024-03-02T12:57:16;4.28;;;3.25;;
55913;SDS011;58179;48.776;9.124;2024-03-02T12:59:44;2.97;;;2.13;;
55913;SDS011;58179;48.776;9.124;2024-03-02T13:02:16;2.80;;;0.90;;
55913;SDS011;58179;48.776;9.124;2024-03-02T13:04:43;9.23;;;6.50;;
55913;SDS011;58179;48.776;9.124;2024-03-02T13:07:09;2.10;;;1.70;;
55913;SDS011;58179;48.776;9.124;2024-03-02T13:09:39;1.55;;;1.08;;
55913;SDS011;58179;48.776;9.124;2024-03-02T13:12:06;1.23;;;0.80;;
55913;SDS011;58179;48.776;9.124;2024-03-02T13:14:32;2.10;;;1.10;;
55913;SDS011;58179;48.776;9.124;2024-03-02T13:17:00;4.50;;;4.10;;
55913;SDS011;58179;48.776;9.124;2024-03-02T13:19:29;1.83;;;1.60;;
55913;SDS011;58179;48.776;9.124;2024-03-02T13:21:55;5.60;;;4.57;;
55913;SDS011;58179;48.776;9.124;2024-03-02T13:24:22;3.05;;;2.75;;
55913;SDS011;58179;48.776;9.124;2024-03-02T13:26:52;1.90;;;1.70;;
55913;SDS011;58179;48.776;9.124;2024-03-02T13:29:21;1.30;;;1.00;;
55913;SDS011;58179;48.776;9.124;2024-03-02T13:31:48;1.45;;;1.05;;
55913;SDS011;58179;48.776;9.124;2024-03-02T13:34:14;27.35;;;15.82;;
55913;SDS011;58179;48.776;9.124;2024-03-02T13:36:40;6.60;;;4.75;;
55913;SDS011;58179;48.776;9.124;2024-03-02T13:39:06;2.22;;;1.80;;
55913;SDS011;58179;48.776;9.124;2024-03-02T13:41:35;5.82;;;3.28;;
55913;SDS011;58179;48.776;9.124;2024-03-02T13:44:02;4.68;;;3.05;;
55913;SDS011;58179;48.776;9.124;2024-03-02T13:46:29;2.80;;;1.27;;
55913;SDS011;58179;48.776;9.124;2024-03-02T13:48:55;2.78;;;1.35;;
55913;SDS011;58179;48.776;9.124;2024-03-02T13:51:22;5.95;;;3.20;;
55913;SDS011;58179;48.776;9.124;2024-03-02T13:53:48;2.92;;;1.60;;
55913;SDS011;58179;48.776;9.124;2024-03-02T13:56:14;2.13;;;1.30;;
55913;SDS011;58179;48.776;9.124;2024-03-02T13:58:40;25.05;;;15.65;;
55913;SDS011;58179;48.776;9.124;2024-03-02T14:01:09;3.97;;;2.47;;
55913;SDS011;58179;48.776;9.124;2024-03-02T14:03:36;1.20;;;1.10;;
55913;SDS011;58179;48.776;9.124;2024-03-02T14:06:02;1.30;;;1.00;;
55913;SDS011;58179;48.776;9.124;2024-03-02T14:08:29;1.25;;;1.00;;
55913;SDS011;58179;48.776;9.124;2024-03-02T14:10:55;2.47;;;0.75;;
55913;SDS011;58179;48.776;9.124;2024-03-02T14:13:25;1.20;;;0.70;;
55913;SDS011;58179;48.776;9.124;2024-03-02T14:15:51;1.23;;;0.90;;
55913;SDS011;58179;48.776;9.124;2024-03-02T14:18:18;2.15;;;1.00;;
55913;SDS011;58179;48.776;9.124;2024-03-02T14:20:46;2.28;;;1.10;;
55913;SDS011;58179;48.776;9.124;2024-03-02T14:23:17;1.60;;;0.90;;
55913;SDS011;58179;48.776;9.124;2024-03-02T14:25:44;3.05;;;1.00;;
55913;SDS011;58179;48.776;9.124;2024-03-02T14:28:10;16.90;;;11.38;;
55913;SDS011;58179;48.776;9.124;2024-03-02T14:30:37;6.15;;;3.90;;
55913;SDS011;58179;48.776;9.124;2024-03-02T14:33:04;2.85;;;1.60;;
55913;SDS011;58179;48.776;9.124;2024-03-02T14:35:32;5.28;;;3.42;;